Time;durP1;ratioP1;P1;durP2;ratioP2;P2;SDS_P1;SDS_P2;PMS_P1;PMS_P2;Temp;Humidity;BMP_temperature;BMP_pressure;BME280_temperature;BME280_humidity;BME280_pressure;Samples;Min_cycle;Max_cycle;Signal;HPM_P1;HPM_P2
2022/04/08 00:01:27;;;;;;;11.18;0.80;;;;;;;;;;5089620;28;20039;-63
2022/04/08 00:03:53;;;;;;;11.50;0.60;;;;;;;;;;5099871;28;20118;-63
2022/04/08 00:06:20;;;;;;;11.30;0.90;;;;;;;;;;5093618;28;20127;-63
2022/04/08 00:08:46;;;;;;;12.43;0.88;;;;;;;;;;5094522;28;20377;-63
2022/04/08 00:11:13;;;;;;;12.60;1.33;;;;;;;;;;5098078;28;21240;-63
2022/04/08 00:13:39;;;;;;;14.55;0.70;;;;;;;;;;5095289;28;20040;-63
2022/04/08 00:16:07;;;;;;;9.05;0.52;;;;;;;;;;5095070;28;20052;-62
2022/04/08 00:18:33;;;;;;;13.82;0.95;;;;;;;;;;5122764;27;20501;-63
2022/04/08 00:21:00;;;;;;;12.77;0.70;;;;;;;;;;5095434;28;20040;-63
2022/04/08 00:23:26;;;;;;;10.05;0.68;;;;;;;;;;5089644;28;20524;-63
2022/04/08 00:25:52;;;;;;;1.85;0.22;;;;;;;;;;5098691;28;20508;-63
2022/04/08 00:28:18;;;;;;;6.30;0.47;;;;;;;;;;5096664;28;20366;-64
2022/04/08 00:30:44;;;;;;;2.58;0.15;;;;;;;;;;5093944;28;20097;-63
2022/04/08 00:33:10;;;;;;;4.50;0.32;;;;;;;;;;5096719;28;20051;-63
2022/04/08 00:35:37;;;;;;;4.60;0.20;;;;;;;;;;5089566;28;20157;-63
2022/04/08 00:38:03;;;;;;;6.55;0.40;;;;;;;;;;5094786;28;20115;-63
2022/04/08 00:40:29;;;;;;;7.25;0.45;;;;;;;;;;5074025;28;20040;-63
2022/04/08 00:42:55;;;;;;;7.03;0.50;;;;;;;;;;5092463;28;20044;-63
2022/04/08 00:45:21;;;;;;;7.40;0.40;;;;;;;;;;5095757;28;20054;-62
2022/04/08 00:47:48;;;;;;;9.32;0.80;;;;;;;;;;5080379;28;20139;-63
2022/04/08 00:50:14;;;;;;;9.73;0.60;;;;;;;;;;5097567;28;20051;-62
2022/04/08 00:52:42;;;;;;;11.77;0.98;;;;;;;;;;5098287;28;20040;-62
2022/04/08 00:55:12;;;;;;;13.75;1.00;;;;;;;;;;5110216;27;20040;-64
2022/04/08 00:57:39;;;;;;;11.07;0.70;;;;;;;;;;5099355;28;20101;-63
2022/04/08 01:00:10;;;;;;;20.08;1.65;;;;;;;;;;5096570;28;20035;-64
2022/04/08 01:02:36;;;;;;;17.65;1.42;;;;;;;;;;5099253;28;20047;-62
2022/04/08 01:05:03;;;;;;;13.63;1.10;;;;;;;;;;5099787;28;20046;-62
2022/04/08 01:07:31;;;;;;;16.55;1.10;;;;;;;;;;5098781;28;20405;-61
2022/04/08 01:09:57;;;;;;;15.45;1.00;;;;;;;;;;5100422;28;20035;-61
2022/04/08 01:12:23;;;;;;;17.77;1.42;;;;;;;;;;5098868;28;20404;-61
2022/04/08 01:14:56;;;;;;;18.08;1.40;;;;;;;;;;5097222;28;20128;-62
2022/04/08 01:17:22;;;;;;;14.10;1.35;;;;;;;;;;5100016;28;20058;-61
2022/04/08 01:19:48;;;;;;;15.88;0.95;;;;;;;;;;5096690;28;20040;-62
2022/04/08 01:22:14;;;;;;;15.20;1.13;;;;;;;;;;5093813;28;20126;-62
2022/04/08 01:24:40;;;;;;;13.38;1.00;;;;;;;;;;5097956;28;20405;-62
2022/04/08 01:27:07;;;;;;;15.05;1.00;;;;;;;;;;5101373;28;20069;-61
2022/04/08 01:29:33;;;;;;;15.40;1.00;;;;;;;;;;5092925;28;20033;-61
2022/04/08 01:31:59;;;;;;;5.75;0.60;;;;;;;;;;5074765;28;20039;-61
2022/04/08 01:34:25;;;;;;;9.80;0.88;;;;;;;;;;5099509;28;20511;-61
2022/04/08 01:36:53;;;;;;;10.40;0.88;;;;;;;;;;5097599;28;20114;-62
2022/04/08 01:39:19;;;;;;;15.13;1.17;;;;;;;;;;5096923;28;20122;-62
2022/04/08 01:41:45;;;;;;;13.98;1.45;;;;;;;;;;5095753;28;20066;-62
2022/04/08 01:44:12;;;;;;;13.43;1.08;;;;;;;;;;5099956;28;20044;-62
2022/04/08 01:46:38;;;;;;;15.13;1.42;;;;;;;;;;5097728;28;20174;-63
2022/04/08 01:49:04;;;;;;;13.93;0.95;;;;;;;;;;5079253;28;20482;-63
2022/04/08 01:51:30;;;;;;;24.98;1.83;;;;;;;;;;5063794;28;20043;-63
2022/04/08 01:53:56;;;;;;;16.33;0.90;;;;;;;;;;5077432;28;20052;-63
2022/04/08 01:56:22;;;;;;;22.88;2.33;;;;;;;;;;5097529;28;20061;-63
2022/04/08 01:58:48;;;;;;;16.27;1.38;;;;;;;;;;5092994;28;20174;-63
2022/04/08 02:01:14;;;;;;;13.93;0.95;;;;;;;;;;5093121;28;20050;-63
2022/04/08 02:03:40;;;;;;;18.73;1.92;;;;;;;;;;5095241;28;20047;-62
2022/04/08 02:06:06;;;;;;;12.05;1.08;;;;;;;;;;5100025;28;20099;-63
2022/04/08 02:08:32;;;;;;;18.90;1.92;;;;;;;;;;5089897;28;20052;-63
2022/04/08 02:10:58;;;;;;;18.23;1.40;;;;;;;;;;5090505;28;20064;-62
2022/04/08 02:13:24;;;;;;;19.42;1.67;;;;;;;;;;5090729;28;20059;-61
2022/04/08 02:15:51;;;;;;;15.88;1.20;;;;;;;;;;5091466;28;20063;-61
2022/04/08 02:18:17;;;;;;;18.23;1.20;;;;;;;;;;5097818;28;20046;-60
2022/04/08 02:20:43;;;;;;;18.17;1.38;;;;;;;;;;5078180;28;20493;-61
2022/04/08 02:23:09;;;;;;;18.40;1.50;;;;;;;;;;5074758;28;20446;-62
2022/04/08 02:25:36;;;;;;;18.35;1.63;;;;;;;;;;5088533;28;20678;-61
2022/04/08 02:28:05;;;;;;;18.17;1.55;;;;;;;;;;5092924;28;20051;-61
2022/04/08 02:30:31;;;;;;;13.85;1.15;;;;;;;;;;5095938;28;20092;-61
2022/04/08 02:32:58;;;;;;;16.38;1.60;;;;;;;;;;5100258;28;20028;-62
2022/04/08 02:35:24;;;;;;;18.17;1.38;;;;;;;;;;5098422;28;20539;-62
2022/04/08 02:37:51;;;;;;;16.63;1.38;;;;;;;;;;5096970;28;20048;-61
2022/04/08 02:40:17;;;;;;;16.02;1.23;;;;;;;;;;5099286;28;20040;-63
2022/04/08 02:42:43;;;;;;;18.98;2.10;;;;;;;;;;5100542;28;20031;-62
2022/04/08 02:45:10;;;;;;;18.95;1.67;;;;;;;;;;5095307;28;20040;-63
2022/04/08 02:47:42;;;;;;;17.67;1.35;;;;;;;;;;5095904;28;20077;-62
2022/04/08 02:50:09;;;;;;;19.40;1.48;;;;;;;;;;5129218;27;20489;-62
2022/04/08 02:52:35;;;;;;;16.25;1.27;;;;;;;;;;5095376;28;20115;-62
2022/04/08 02:55:01;;;;;;;15.00;1.42;;;;;;;;;;5088850;28;20040;-62
2022/04/08 02:57:27;;;;;;;10.32;1.02;;;;;;;;;;5101866;28;21299;-62
2022/04/08 02:59:54;;;;;;;17.27;1.63;;;;;;;;;;5131114;27;20044;-62
2022/04/08 03:02:20;;;;;;;12.23;1.25;;;;;;;;;;5097211;28;20043;-63
2022/04/08 03:04:46;;;;;;;10.07;1.10;;;;;;;;;;5100382;28;20078;-62
2022/04/08 03:07:12;;;;;;;12.15;1.08;;;;;;;;;;5097843;28;20035;-61
2022/04/08 03:09:38;;;;;;;16.58;1.20;;;;;;;;;;5103600;28;20043;-62
2022/04/08 03:12:06;;;;;;;17.00;1.65;;;;;;;;;;5103566;28;20078;-61
2022/04/08 03:14:32;;;;;;;21.08;1.50;;;;;;;;;;5098403;28;20086;-62
2022/04/08 03:16:58;;;;;;;13.38;1.13;;;;;;;;;;5099572;28;20043;-63
2022/04/08 03:19:24;;;;;;;13.25;1.00;;;;;;;;;;5082601;28;20054;-62
2022/04/08 03:21:50;;;;;;;14.57;1.33;;;;;;;;;;5098848;28;20036;-61
2022/04/08 03:24:16;;;;;;;11.35;1.05;;;;;;;;;;5098224;28;20040;-61
2022/04/08 03:26:43;;;;;;;1.90;0.47;;;;;;;;;;5097197;28;20358;-61
2022/04/08 03:29:09;;;;;;;3.55;0.38;;;;;;;;;;5104002;28;20050;-62
2022/04/08 03:31:38;;;;;;;4.85;0.20;;;;;;;;;;5098014;28;20490;-61
2022/04/08 03:34:04;;;;;;;4.07;0.20;;;;;;;;;;5101156;28;20063;-62
2022/04/08 03:36:30;;;;;;;4.07;0.30;;;;;;;;;;5105134;28;20044;-62
2022/04/08 03:38:56;;;;;;;4.35;0.70;;;;;;;;;;5100338;28;20392;-62
2022/04/08 03:41:22;;;;;;;2.65;0.20;;;;;;;;;;5097084;28;20035;-62
2022/04/08 03:43:48;;;;;;;1.85;0.20;;;;;;;;;;5101338;28;20051;-62
2022/04/08 03:46:16;;;;;;;3.28;0.20;;;;;;;;;;5076465;28;20075;-63
2022/04/08 03:48:43;;;;;;;0.98;0.20;;;;;;;;;;5099573;28;20552;-63
2022/04/08 03:51:09;;;;;;;6.55;0.50;;;;;;;;;;5096594;28;20040;-63
2022/04/08 03:53:35;;;;;;;4.90;0.45;;;;;;;;;;5094134;28;20040;-61
2022/04/08 03:56:02;;;;;;;2.47;0.30;;;;;;;;;;5081992;28;20036;-62
2022/04/08 03:58:29;;;;;;;5.68;0.40;;;;;;;;;;5098030;28;20036;-62
2022/04/08 04:00:55;;;;;;;4.10;0.30;;;;;;;;;;5097011;28;20051;-62
2022/04/08 04:03:22;;;;;;;8.55;0.50;;;;;;;;;;5102534;28;20044;-62
2022/04/08 04:05:49;;;;;;;10.70;0.82;;;;;;;;;;5095154;28;20487;-62
2022/04/08 04:08:18;;;;;;;10.48;0.60;;;;;;;;;;5097371;28;20043;-62
2022/04/08 04:10:48;;;;;;;6.38;0.50;;;;;;;;;;5105301;28;20127;-64
2022/04/08 04:13:14;;;;;;;5.80;0.80;;;;;;;;;;5077688;28;20447;-63
2022/04/08 04:15:40;;;;;;;12.65;0.88;;;;;;;;;;5078069;28;20060;-62
2022/04/08 04:18:06;;;;;;;11.98;1.02;;;;;;;;;;5095148;28;20766;-62
2022/04/08 04:20:33;;;;;;;7.43;1.05;;;;;;;;;;5079201;28;20093;-62
2022/04/08 04:22:59;;;;;;;13.02;1.05;;;;;;;;;;5096910;28;20035;-62
2022/04/08 04:25:26;;;;;;;7.57;0.85;;;;;;;;;;5076444;28;20460;-60
2022/04/08 04:27:52;;;;;;;9.65;0.70;;;;;;;;;;5111117;27;20674;-62
2022/04/08 04:30:18;;;;;;;2.70;0.40;;;;;;;;;;5092688;28;20451;-61
2022/04/08 04:32:44;;;;;;;8.63;0.55;;;;;;;;;;5092817;28;20046;-62
2022/04/08 04:35:10;;;;;;;11.73;1.00;;;;;;;;;;5093385;28;20035;-62
2022/04/08 04:37:36;;;;;;;6.15;0.80;;;;;;;;;;5075536;28;20067;-61
2022/04/08 04:40:03;;;;;;;8.02;1.13;;;;;;;;;;5078062;28;20054;-62
2022/04/08 04:42:32;;;;;;;6.03;0.52;;;;;;;;;;5095534;28;20405;-62
2022/04/08 04:44:58;;;;;;;9.13;0.70;;;;;;;;;;5098921;28;20043;-62
2022/04/08 04:47:29;;;;;;;8.18;0.80;;;;;;;;;;5092850;28;20048;-62
2022/04/08 04:49:55;;;;;;;6.25;0.43;;;;;;;;;;5097126;28;20112;-62
2022/04/08 04:52:21;;;;;;;6.30;0.52;;;;;;;;;;5105709;27;20481;-62
2022/04/08 04:54:47;;;;;;;7.97;0.60;;;;;;;;;;5094723;28;20465;-62
2022/04/08 04:57:13;;;;;;;5.97;1.15;;;;;;;;;;5098803;28;20123;-62
2022/04/08 04:59:39;;;;;;;8.57;0.98;;;;;;;;;;5095407;28;20096;-63
2022/04/08 05:02:05;;;;;;;11.20;0.70;;;;;;;;;;5091426;27;20035;-62
2022/04/08 05:04:33;;;;;;;7.53;0.70;;;;;;;;;;5095003;28;20123;-63
2022/04/08 05:06:59;;;;;;;11.45;1.08;;;;;;;;;;5092167;28;20541;-62
2022/04/08 05:09:25;;;;;;;3.63;0.43;;;;;;;;;;5089744;28;20090;-61
2022/04/08 05:11:51;;;;;;;2.35;0.25;;;;;;;;;;5097439;28;20801;-62
2022/04/08 05:14:17;;;;;;;4.22;0.30;;;;;;;;;;5096439;28;20072;-62
2022/04/08 05:16:43;;;;;;;3.95;0.30;;;;;;;;;;5102445;28;20113;-62
2022/04/08 05:19:11;;;;;;;5.45;0.30;;;;;;;;;;5093029;28;20569;-62
2022/04/08 05:21:40;;;;;;;4.50;0.60;;;;;;;;;;5094052;28;20071;-62
2022/04/08 05:24:06;;;;;;;4.38;0.40;;;;;;;;;;5072940;28;20093;-62
2022/04/08 05:26:32;;;;;;;2.25;0.30;;;;;;;;;;5127261;27;20123;-63
2022/04/08 05:28:58;;;;;;;6.97;0.88;;;;;;;;;;5094703;28;20041;-63
2022/04/08 05:31:24;;;;;;;5.85;0.60;;;;;;;;;;5107690;27;20127;-63
2022/04/08 05:33:50;;;;;;;7.38;0.65;;;;;;;;;;5093292;28;20142;-62
2022/04/08 05:36:22;;;;;;;8.40;0.90;;;;;;;;;;5093670;28;20087;-62
2022/04/08 05:38:49;;;;;;;2.47;0.40;;;;;;;;;;5078542;28;20028;-61
2022/04/08 05:41:15;;;;;;;6.53;0.70;;;;;;;;;;5099644;28;20035;-61
2022/04/08 05:43:44;;;;;;;8.48;0.73;;;;;;;;;;5096691;28;20047;-63
2022/04/08 05:46:10;;;;;;;12.57;1.02;;;;;;;;;;5097008;28;20482;-61
2022/04/08 05:48:36;;;;;;;8.23;0.80;;;;;;;;;;5096858;28;20122;-62
2022/04/08 05:51:02;;;;;;;10.45;1.15;;;;;;;;;;5093366;28;20073;-61
2022/04/08 05:53:29;;;;;;;11.00;1.10;;;;;;;;;;5105000;28;20044;-61
2022/04/08 05:55:55;;;;;;;10.70;1.38;;;;;;;;;;5098001;28;20485;-63
2022/04/08 05:58:22;;;;;;;9.27;1.02;;;;;;;;;;5098736;28;20375;-63
2022/04/08 06:00:48;;;;;;;5.80;0.60;;;;;;;;;;5094479;28;20124;-63
2022/04/08 06:03:14;;;;;;;13.68;0.90;;;;;;;;;;5094901;28;20055;-63
2022/04/08 06:05:40;;;;;;;10.50;0.90;;;;;;;;;;5098819;28;20412;-63
2022/04/08 06:08:06;;;;;;;7.65;0.68;;;;;;;;;;5097276;28;20043;-63
2022/04/08 06:10:32;;;;;;;8.90;1.40;;;;;;;;;;5074956;28;20036;-62
2022/04/08 06:12:58;;;;;;;7.28;1.00;;;;;;;;;;5073511;28;20071;-62
2022/04/08 06:15:26;;;;;;;8.32;0.85;;;;;;;;;;5094386;28;20040;-64
2022/04/08 06:17:58;;;;;;;5.88;0.77;;;;;;;;;;5088725;28;20063;-63
2022/04/08 06:20:25;;;;;;;9.05;0.70;;;;;;;;;;5101308;28;20473;-62
2022/04/08 06:22:51;;;;;;;7.68;0.85;;;;;;;;;;5089430;28;20032;-63
2022/04/08 06:25:24;;;;;;;5.47;0.85;;;;;;;;;;5095186;28;20130;-63
2022/04/08 06:27:58;;;;;;;6.53;0.50;;;;;;;;;;5092404;28;20121;-63
2022/04/08 06:30:24;;;;;;;8.73;1.02;;;;;;;;;;5095931;28;20047;-63
2022/04/08 06:32:51;;;;;;;8.00;0.88;;;;;;;;;;5092378;28;20046;-62
2022/04/08 06:35:18;;;;;;;4.93;0.75;;;;;;;;;;5101435;28;20036;-62
2022/04/08 06:37:44;;;;;;;6.85;0.45;;;;;;;;;;5097751;28;20082;-62
2022/04/08 06:40:10;;;;;;;3.63;0.40;;;;;;;;;;5097058;28;20118;-62
2022/04/08 06:42:38;;;;;;;7.40;0.50;;;;;;;;;;5093910;28;20438;-61
2022/04/08 06:45:05;;;;;;;4.88;0.50;;;;;;;;;;5098026;28;20044;-62
2022/04/08 06:47:31;;;;;;;6.57;0.80;;;;;;;;;;5097551;28;20047;-62
2022/04/08 06:49:57;;;;;;;6.57;0.45;;;;;;;;;;5099258;28;20035;-61
2022/04/08 06:52:23;;;;;;;3.80;0.40;;;;;;;;;;5093527;28;20114;-61
2022/04/08 06:54:49;;;;;;;5.30;0.40;;;;;;;;;;5087537;28;20050;-60
2022/04/08 06:57:15;;;;;;;5.43;0.52;;;;;;;;;;5096006;28;20044;-61
2022/04/08 06:59:42;;;;;;;4.22;0.50;;;;;;;;;;5081474;28;20040;-62
2022/04/08 07:02:09;;;;;;;3.85;0.40;;;;;;;;;;5093008;28;20036;-60
2022/04/08 07:04:35;;;;;;;5.53;0.50;;;;;;;;;;5100684;28;20350;-61
2022/04/08 07:07:04;;;;;;;7.55;0.52;;;;;;;;;;5093713;28;20048;-61
2022/04/08 07:09:32;;;;;;;4.22;0.57;;;;;;;;;;5092306;28;20043;-60
2022/04/08 07:11:58;;;;;;;4.18;0.60;;;;;;;;;;5099565;28;20040;-62
2022/04/08 07:14:24;;;;;;;2.63;0.40;;;;;;;;;;5095736;28;20042;-61
2022/04/08 07:16:50;;;;;;;6.70;0.50;;;;;;;;;;5094403;28;20094;-60
2022/04/08 07:19:17;;;;;;;4.07;0.80;;;;;;;;;;5094045;28;20044;-60
2022/04/08 07:21:43;;;;;;;4.57;0.30;;;;;;;;;;5108844;28;20040;-62
2022/04/08 07:24:09;;;;;;;2.85;0.25;;;;;;;;;;5091509;28;20044;-60
2022/04/08 07:26:35;;;;;;;4.22;0.30;;;;;;;;;;5096705;27;20189;-63
2022/04/08 07:29:01;;;;;;;8.88;0.70;;;;;;;;;;5101842;28;20044;-63
2022/04/08 07:31:27;;;;;;;5.68;0.60;;;;;;;;;;5089309;28;20036;-63
2022/04/08 07:33:54;;;;;;;8.55;1.35;;;;;;;;;;5089487;28;20040;-63
2022/04/08 07:36:20;;;;;;;9.10;0.93;;;;;;;;;;5108182;27;20031;-64
2022/04/08 07:38:47;;;;;;;8.75;1.20;;;;;;;;;;5091812;28;20068;-63
2022/04/08 07:41:13;;;;;;;9.50;1.17;;;;;;;;;;5094744;28;20039;-62
2022/04/08 07:43:39;;;;;;;5.28;0.70;;;;;;;;;;5095103;28;20248;-63
2022/04/08 07:46:05;;;;;;;9.85;1.13;;;;;;;;;;5097641;28;20047;-63
2022/04/08 07:48:31;;;;;;;6.45;1.00;;;;;;;;;;5093481;28;20475;-60
2022/04/08 07:50:57;;;;;;;11.07;1.25;;;;;;;;;;5098934;28;20537;-61
2022/04/08 07:53:24;;;;;;;9.95;1.10;;;;;;;;;;5102266;28;20044;-61
2022/04/08 07:55:52;;;;;;;9.10;1.98;;;;;;;;;;5095260;28;20035;-60
2022/04/08 07:58:18;;;;;;;11.02;1.13;;;;;;;;;;5101955;28;20131;-60
2022/04/08 08:00:44;;;;;;;11.18;1.30;;;;;;;;;;5101203;28;21221;-61
2022/04/08 08:03:15;;;;;;;10.80;1.20;;;;;;;;;;5100512;28;20121;-61
2022/04/08 08:05:41;;;;;;;10.05;1.50;;;;;;;;;;5097423;28;20119;-61
2022/04/08 08:08:07;;;;;;;7.95;1.25;;;;;;;;;;5099210;28;20050;-61
2022/04/08 08:10:37;;;;;;;6.90;1.00;;;;;;;;;;5091754;28;20042;-62
2022/04/08 08:13:03;;;;;;;7.32;0.93;;;;;;;;;;5093998;28;20093;-62
2022/04/08 08:15:31;;;;;;;7.40;0.88;;;;;;;;;;5098983;28;20081;-62
2022/04/08 08:17:57;;;;;;;4.82;0.73;;;;;;;;;;5092936;28;20508;-61
2022/04/08 08:20:24;;;;;;;5.63;0.77;;;;;;;;;;5098283;28;20035;-61
2022/04/08 08:22:50;;;;;;;7.10;0.80;;;;;;;;;;5104817;28;20036;-61
2022/04/08 08:25:16;;;;;;;8.98;0.80;;;;;;;;;;5107612;28;20485;-62
2022/04/08 08:27:52;;;;;;;6.07;0.52;;;;;;;;;;5107017;28;20051;-61
2022/04/08 08:30:18;;;;;;;7.03;0.43;;;;;;;;;;5131205;27;20079;-62
2022/04/08 08:32:45;;;;;;;8.82;0.70;;;;;;;;;;5109587;28;20067;-63
2022/04/08 08:35:17;;;;;;;8.30;0.70;;;;;;;;;;5108222;28;20050;-61
2022/04/08 08:37:43;;;;;;;11.23;0.63;;;;;;;;;;5097499;28;20417;-61
2022/04/08 08:40:11;;;;;;;6.90;0.70;;;;;;;;;;5091694;28;20043;-61
2022/04/08 08:42:37;;;;;;;6.47;0.60;;;;;;;;;;5103033;28;20070;-61
2022/04/08 08:45:04;;;;;;;7.82;0.60;;;;;;;;;;5106429;28;20039;-61
2022/04/08 08:47:31;;;;;;;5.68;0.50;;;;;;;;;;5090686;28;20240;-60
2022/04/08 08:49:57;;;;;;;7.72;0.50;;;;;;;;;;5104536;28;20039;-61
2022/04/08 08:52:24;;;;;;;6.53;0.40;;;;;;;;;;5106957;28;20036;-59
2022/04/08 08:54:50;;;;;;;9.98;0.60;;;;;;;;;;5071341;28;20085;-60
2022/04/08 08:57:17;;;;;;;10.55;0.60;;;;;;;;;;5090814;28;20036;-60
2022/04/08 08:59:44;;;;;;;10.15;0.75;;;;;;;;;;5106543;28;20454;-60
2022/04/08 09:02:12;;;;;;;10.50;0.60;;;;;;;;;;5096317;28;20055;-61
2022/04/08 09:04:42;;;;;;;12.15;0.90;;;;;;;;;;5108538;28;20043;-63
2022/04/08 09:07:09;;;;;;;9.25;1.20;;;;;;;;;;5105775;28;20050;-61
2022/04/08 09:09:35;;;;;;;6.78;0.40;;;;;;;;;;5104699;28;20039;-62
2022/04/08 09:12:11;;;;;;;6.80;0.75;;;;;;;;;;5107439;28;20039;-63
2022/04/08 09:14:37;;;;;;;10.35;0.60;;;;;;;;;;5108060;28;20047;-61
2022/04/08 09:17:03;;;;;;;10.82;1.00;;;;;;;;;;5108181;28;20130;-63
2022/04/08 09:19:34;;;;;;;10.07;0.90;;;;;;;;;;5102496;28;20044;-62
2022/04/08 09:22:00;;;;;;;8.55;0.60;;;;;;;;;;5108251;28;20059;-62
2022/04/08 09:24:29;;;;;;;6.90;0.52;;;;;;;;;;5102480;28;20055;-61
2022/04/08 09:26:55;;;;;;;6.78;0.60;;;;;;;;;;5102996;28;20031;-61
2022/04/08 09:29:22;;;;;;;5.55;0.55;;;;;;;;;;5108153;28;20298;-62
2022/04/08 09:31:49;;;;;;;5.25;0.40;;;;;;;;;;5106254;28;20040;-61
2022/04/08 09:34:16;;;;;;;6.97;0.40;;;;;;;;;;5106315;28;20180;-62
2022/04/08 09:36:43;;;;;;;1.20;0.10;;;;;;;;;;5108399;28;20385;-62
2022/04/08 09:39:10;;;;;;;2.90;0.20;;;;;;;;;;5088146;28;20062;-63
2022/04/08 09:41:38;;;;;;;4.70;0.47;;;;;;;;;;5084087;28;20043;-63
2022/04/08 09:44:04;;;;;;;4.80;0.30;;;;;;;;;;5101449;28;20418;-63
2022/04/08 09:46:30;;;;;;;6.85;0.55;;;;;;;;;;5132231;27;20036;-62
2022/04/08 09:48:57;;;;;;;3.63;0.30;;;;;;;;;;5089588;28;20119;-63
2022/04/08 09:51:23;;;;;;;4.30;0.20;;;;;;;;;;5087706;28;20489;-62
2022/04/08 09:54:00;;;;;;;7.10;0.52;;;;;;;;;;5072435;28;20044;-61
2022/04/08 09:56:28;;;;;;;3.33;0.20;;;;;;;;;;5103696;28;20385;-62
2022/04/08 09:59:00;;;;;;;5.20;0.20;;;;;;;;;;5108387;28;20047;-61
2022/04/08 10:01:27;;;;;;;4.85;0.45;;;;;;;;;;5110202;28;20024;-62
2022/04/08 10:03:54;;;;;;;1.85;0.30;;;;;;;;;;5112882;27;20521;-60
2022/04/08 10:06:21;;;;;;;6.10;0.52;;;;;;;;;;5109957;28;20463;-61
2022/04/08 10:08:48;;;;;;;4.82;0.20;;;;;;;;;;5107957;28;20545;-61
2022/04/08 10:11:21;;;;;;;2.45;0.20;;;;;;;;;;5109727;28;20035;-60
2022/04/08 10:13:55;;;;;;;1.65;0.30;;;;;;;;;;5099648;28;20047;-60
2022/04/08 10:16:22;;;;;;;3.85;0.20;;;;;;;;;;5095100;28;20597;-61
2022/04/08 10:18:50;;;;;;;2.47;0.20;;;;;;;;;;5098449;28;20059;-61
2022/04/08 10:21:16;;;;;;;3.65;0.30;;;;;;;;;;5106809;28;20095;-60
2022/04/08 10:23:49;;;;;;;3.17;0.40;;;;;;;;;;5103673;28;20055;-60
2022/04/08 10:26:19;;;;;;;3.47;0.22;;;;;;;;;;5101761;28;20040;-61
2022/04/08 10:28:46;;;;;;;4.80;0.40;;;;;;;;;;5102048;28;20040;-62
2022/04/08 10:31:20;;;;;;;4.13;0.43;;;;;;;;;;5094003;28;20090;-60
2022/04/08 10:33:50;;;;;;;3.17;0.20;;;;;;;;;;5098621;28;20373;-60
2022/04/08 10:36:16;;;;;;;7.95;0.45;;;;;;;;;;5089941;28;20039;-62
2022/04/08 10:38:42;;;;;;;4.75;0.35;;;;;;;;;;5096413;28;20130;-60
2022/04/08 10:41:11;;;;;;;4.05;0.57;;;;;;;;;;5103141;28;20039;-61
2022/04/08 10:43:55;;;;;;;5.55;0.60;;;;;;;;;;5097011;28;20516;-61
2022/04/08 10:46:29;;;;;;;4.85;0.40;;;;;;;;;;5099248;28;20055;-62
2022/04/08 10:48:58;;;;;;;6.28;0.52;;;;;;;;;;5107468;28;20032;-62
2022/04/08 10:51:24;;;;;;;4.32;0.40;;;;;;;;;;5088288;28;20036;-61
2022/04/08 10:53:51;;;;;;;7.03;0.40;;;;;;;;;;5106497;28;20062;-62
2022/04/08 10:56:34;;;;;;;7.50;0.40;;;;;;;;;;5104892;28;20063;-62
2022/04/08 10:59:00;;;;;;;7.22;0.70;;;;;;;;;;5106772;28;20039;-60
2022/04/08 11:01:27;;;;;;;9.15;1.20;;;;;;;;;;5106308;28;20508;-61
2022/04/08 11:03:58;;;;;;;3.35;0.38;;;;;;;;;;5088076;28;20052;-61
2022/04/08 11:06:25;;;;;;;6.90;0.30;;;;;;;;;;5087460;28;20039;-61
2022/04/08 11:08:52;;;;;;;4.25;0.30;;;;;;;;;;5085109;28;20043;-61
2022/04/08 11:11:27;;;;;;;8.65;0.40;;;;;;;;;;5093817;28;20032;-62
2022/04/08 11:13:57;;;;;;;5.25;0.68;;;;;;;;;;5092992;28;20037;-61
2022/04/08 11:16:23;;;;;;;2.92;0.30;;;;;;;;;;5099586;28;20051;-60
2022/04/08 11:18:49;;;;;;;3.88;0.32;;;;;;;;;;5111070;28;20048;-61
2022/04/08 11:21:19;;;;;;;3.72;0.17;;;;;;;;;;5113757;28;20059;-60
2022/04/08 11:23:57;;;;;;;5.10;0.20;;;;;;;;;;5111314;28;20493;-60
2022/04/08 11:26:23;;;;;;;5.05;0.40;;;;;;;;;;5112856;28;20361;-61
2022/04/08 11:28:49;;;;;;;6.72;0.40;;;;;;;;;;5111534;28;20096;-62
2022/04/08 11:31:18;;;;;;;6.63;0.30;;;;;;;;;;5112574;28;20039;-60
2022/04/08 11:33:44;;;;;;;8.07;0.40;;;;;;;;;;5111224;28;20074;-61
2022/04/08 11:36:10;;;;;;;5.55;0.30;;;;;;;;;;5112796;28;20032;-61
2022/04/08 11:38:36;;;;;;;2.70;0.20;;;;;;;;;;5112840;28;20036;-62
2022/04/08 11:41:04;;;;;;;4.20;0.20;;;;;;;;;;5112771;28;20039;-60
2022/04/08 11:43:30;;;;;;;6.38;0.30;;;;;;;;;;5112627;28;20043;-60
2022/04/08 11:45:57;;;;;;;5.05;0.47;;;;;;;;;;5111304;28;20047;-61
2022/04/08 11:48:23;;;;;;;5.03;0.30;;;;;;;;;;5111040;28;20039;-60
2022/04/08 11:50:50;;;;;;;3.47;0.30;;;;;;;;;;5111196;28;20043;-61
2022/04/08 11:53:20;;;;;;;3.00;0.40;;;;;;;;;;5112215;28;20036;-62
2022/04/08 11:55:59;;;;;;;4.70;0.38;;;;;;;;;;5110686;28;20083;-63
2022/04/08 11:58:27;;;;;;;3.80;0.28;;;;;;;;;;5110711;28;20127;-62
2022/04/08 12:00:53;;;;;;;4.70;0.60;;;;;;;;;;5093940;28;20051;-61
2022/04/08 12:03:20;;;;;;;7.40;0.35;;;;;;;;;;5112049;28;20046;-62
2022/04/08 12:05:46;;;;;;;5.72;0.40;;;;;;;;;;5110789;28;20044;-60
2022/04/08 12:08:13;;;;;;;5.10;0.55;;;;;;;;;;5111239;28;20088;-60
2022/04/08 12:10:40;;;;;;;4.97;0.30;;;;;;;;;;5113156;28;20505;-60
2022/04/08 12:13:14;;;;;;;4.13;0.40;;;;;;;;;;5111430;28;20054;-61
2022/04/08 12:15:44;;;;;;;4.05;0.30;;;;;;;;;;5113253;28;20051;-60
2022/04/08 12:18:11;;;;;;;4.50;0.30;;;;;;;;;;5113113;28;20047;-60
2022/04/08 12:20:41;;;;;;;5.53;0.30;;;;;;;;;;5113100;28;20386;-60
2022/04/08 12:23:13;;;;;;;3.95;0.30;;;;;;;;;;5113157;28;20397;-61
2022/04/08 12:25:41;;;;;;;8.30;0.70;;;;;;;;;;5112922;28;20044;-60
2022/04/08 12:28:12;;;;;;;7.18;0.80;;;;;;;;;;5094468;28;20040;-60
2022/04/08 12:30:38;;;;;;;5.00;0.30;;;;;;;;;;5094960;28;20048;-60
2022/04/08 12:33:04;;;;;;;4.55;0.40;;;;;;;;;;5111731;28;20047;-60
2022/04/08 12:35:31;;;;;;;3.60;0.40;;;;;;;;;;5112943;28;20068;-61
2022/04/08 12:37:59;;;;;;;7.22;0.45;;;;;;;;;;5112660;28;20032;-61
2022/04/08 12:40:26;;;;;;;8.50;0.30;;;;;;;;;;5112521;28;20075;-61
2022/04/08 12:42:52;;;;;;;5.47;0.60;;;;;;;;;;5111648;28;20062;-60
2022/04/08 12:45:18;;;;;;;4.05;0.30;;;;;;;;;;5112735;28;20075;-61
2022/04/08 12:47:44;;;;;;;6.07;0.52;;;;;;;;;;5094173;28;20047;-61
2022/04/08 12:50:13;;;;;;;4.97;0.32;;;;;;;;;;5112439;28;20051;-61
2022/04/08 12:52:41;;;;;;;4.18;0.40;;;;;;;;;;5112522;28;20051;-61
2022/04/08 12:55:07;;;;;;;6.63;0.30;;;;;;;;;;5112197;27;20455;-61
2022/04/08 12:57:34;;;;;;;2.00;0.20;;;;;;;;;;5112472;28;20045;-60
2022/04/08 13:00:00;;;;;;;3.28;0.32;;;;;;;;;;5110955;28;20071;-61
2022/04/08 13:02:27;;;;;;;6.55;0.40;;;;;;;;;;5110914;28;20039;-60
2022/04/08 13:04:53;;;;;;;5.75;0.40;;;;;;;;;;5112201;28;20039;-60
2022/04/08 13:07:19;;;;;;;2.47;0.20;;;;;;;;;;5112293;28;20050;-60
2022/04/08 13:09:45;;;;;;;5.57;0.30;;;;;;;;;;5093572;28;20043;-61
2022/04/08 13:12:11;;;;;;;4.57;0.30;;;;;;;;;;5111314;28;20434;-61
2022/04/08 13:14:37;;;;;;;4.13;0.40;;;;;;;;;;5110796;28;20515;-61
2022/04/08 13:17:04;;;;;;;5.88;0.40;;;;;;;;;;5110371;28;20193;-61
2022/04/08 13:19:30;;;;;;;4.50;0.40;;;;;;;;;;5093694;28;20122;-60
2022/04/08 13:21:56;;;;;;;4.63;0.22;;;;;;;;;;5110953;28;20511;-61
2022/04/08 13:24:22;;;;;;;2.60;0.30;;;;;;;;;;5110949;28;20039;-61
2022/04/08 13:26:48;;;;;;;3.78;0.40;;;;;;;;;;5110645;28;20047;-60
2022/04/08 13:29:14;;;;;;;4.25;0.30;;;;;;;;;;5111779;28;20550;-61
2022/04/08 13:31:40;;;;;;;3.47;0.30;;;;;;;;;;5110203;28;20122;-61
2022/04/08 13:34:06;;;;;;;4.35;0.30;;;;;;;;;;5111504;28;20069;-61
2022/04/08 13:36:32;;;;;;;5.40;0.40;;;;;;;;;;5110055;28;20056;-61
2022/04/08 13:38:59;;;;;;;5.82;0.45;;;;;;;;;;5109855;28;20043;-60
2022/04/08 13:41:26;;;;;;;5.95;0.40;;;;;;;;;;5092880;28;20504;-61
2022/04/08 13:43:55;;;;;;;5.72;0.35;;;;;;;;;;5110382;28;20047;-60
2022/04/08 13:46:21;;;;;;;4.43;0.20;;;;;;;;;;5110140;28;20043;-61
2022/04/08 13:48:47;;;;;;;5.22;0.40;;;;;;;;;;5092903;28;20448;-60
2022/04/08 13:51:13;;;;;;;5.28;0.50;;;;;;;;;;5109898;28;20082;-61
2022/04/08 13:53:40;;;;;;;4.60;0.30;;;;;;;;;;5109797;28;20130;-61
2022/04/08 13:56:07;;;;;;;6.43;0.45;;;;;;;;;;5092742;28;20111;-61
2022/04/08 13:58:34;;;;;;;4.82;0.60;;;;;;;;;;5110399;28;20047;-61
2022/04/08 14:01:00;;;;;;;5.75;0.40;;;;;;;;;;5111051;28;20100;-60
2022/04/08 14:03:26;;;;;;;4.97;0.40;;;;;;;;;;5110752;28;20499;-60
2022/04/08 14:05:52;;;;;;;6.60;0.30;;;;;;;;;;5093285;28;20441;-61
2022/04/08 14:08:19;;;;;;;3.58;0.30;;;;;;;;;;5109686;28;20357;-60
2022/04/08 14:10:45;;;;;;;5.72;0.43;;;;;;;;;;5109798;28;20079;-61
2022/04/08 14:13:11;;;;;;;2.72;0.20;;;;;;;;;;5111088;28;20124;-60
2022/04/08 14:15:37;;;;;;;3.63;0.22;;;;;;;;;;5109257;28;20050;-61
2022/04/08 14:18:03;;;;;;;6.00;0.40;;;;;;;;;;5109347;28;20078;-61
2022/04/08 14:20:29;;;;;;;5.53;0.30;;;;;;;;;;5111018;28;20043;-60
2022/04/08 14:22:55;;;;;;;6.07;0.40;;;;;;;;;;5109231;28;20551;-60
2022/04/08 14:25:21;;;;;;;4.82;0.40;;;;;;;;;;5109660;28;20121;-61
2022/04/08 14:27:47;;;;;;;5.05;0.40;;;;;;;;;;5110911;28;20421;-61
2022/04/08 14:30:14;;;;;;;7.22;0.60;;;;;;;;;;5111092;28;20416;-61
2022/04/08 14:32:40;;;;;;;5.22;0.40;;;;;;;;;;5110921;28;20039;-60
2022/04/08 14:35:07;;;;;;;6.13;0.50;;;;;;;;;;5110712;28;20047;-61
2022/04/08 14:37:33;;;;;;;5.47;0.52;;;;;;;;;;5109982;28;20036;-61